createdAt,value
2023-08-21T00:00:56.810Z,16.86
2023-08-21T00:03:29.219Z,15.01
2023-08-21T00:06:01.652Z,16.22
2023-08-21T00:08:34.262Z,15.54
2023-08-21T00:11:06.650Z,15.47
2023-08-21T00:13:38.993Z,16.59
2023-08-21T00:16:13.913Z,16.28
2023-08-21T00:18:46.662Z,15.24
2023-08-21T00:21:19.124Z,16.59
2023-08-21T00:23:51.638Z,17.35
2023-08-21T00:26:24.050Z,16.43
2023-08-21T00:28:56.660Z,16.66
2023-08-21T00:31:31.668Z,17.01
2023-08-21T00:34:04.018Z,18.93
2023-08-21T00:36:36.564Z,17.57
2023-08-21T00:39:09.380Z,15.47
2023-08-21T00:41:41.792Z,17.37
2023-08-21T00:44:14.254Z,18.26
2023-08-21T00:46:49.628Z,20.87
2023-08-21T00:49:22.253Z,21.19
2023-08-21T00:51:56.649Z,23.10
2023-08-21T00:54:29.368Z,24.81
2023-08-21T00:57:01.871Z,19.94
2023-08-21T00:59:35.972Z,18.61
2023-08-21T01:02:11.056Z,17.88
2023-08-21T01:04:43.525Z,19.87
2023-08-21T01:07:16.200Z,19.66
2023-08-21T01:09:57.845Z,19.59
2023-08-21T01:12:40.230Z,15.72
2023-08-21T01:15:14.079Z,18.74
2023-08-21T01:17:51.136Z,17.61
2023-08-21T01:20:25.119Z,17.44
2023-08-21T01:22:57.379Z,18.09
2023-08-21T01:25:32.392Z,17.36
2023-08-21T01:28:04.960Z,15.85
2023-08-21T01:30:40.539Z,15.57
2023-08-21T01:33:20.652Z,16.36
2023-08-21T01:35:54.302Z,17.51
2023-08-21T01:38:26.721Z,17.33
2023-08-21T01:41:02.059Z,17.34
2023-08-21T01:43:34.513Z,18.08
2023-08-21T01:46:07.458Z,16.56
2023-08-21T01:48:40.210Z,16.99
2023-08-21T01:51:12.795Z,18.49
2023-08-21T01:53:45.111Z,17.98
2023-08-21T01:56:20.024Z,20.87
2023-08-21T01:58:52.417Z,20.84
2023-08-21T02:01:24.797Z,19.63
2023-08-21T02:03:57.115Z,18.66
2023-08-21T02:06:29.382Z,17.41
2023-08-21T02:09:01.911Z,16.52
2023-08-21T02:11:36.838Z,16.09
2023-08-21T02:14:09.139Z,17.76
2023-08-21T02:16:41.486Z,18.11
2023-08-21T02:19:14.107Z,17.81
2023-08-21T02:21:46.435Z,16.97
2023-08-21T02:24:18.782Z,17.92
2023-08-21T02:26:53.758Z,18.38
2023-08-21T02:29:26.597Z,17.24
2023-08-21T02:32:00.209Z,18.77
2023-08-21T02:34:32.556Z,19.09
2023-08-21T02:37:06.339Z,18.45
2023-08-21T02:39:39.842Z,17.78
2023-08-21T02:42:14.948Z,18.55
2023-08-21T02:44:48.117Z,17.47
2023-08-21T02:47:20.450Z,17.27
2023-08-21T02:49:53.117Z,17.83
2023-08-21T02:52:25.398Z,18.36
2023-08-21T02:54:57.778Z,17.06
2023-08-21T02:57:33.484Z,17.63
2023-08-21T03:00:12.383Z,17.26
2023-08-21T03:02:45.621Z,15.13
2023-08-21T03:05:18.230Z,16.96
2023-08-21T03:07:50.488Z,17.36
2023-08-21T03:10:24.886Z,18.42
2023-08-21T03:13:00.291Z,17.77
2023-08-21T03:15:32.905Z,17.21
2023-08-21T03:18:05.430Z,15.44
2023-08-21T03:20:37.888Z,16.46
2023-08-21T03:23:10.263Z,17.31
2023-08-21T03:25:42.580Z,18.01
2023-08-21T03:28:17.549Z,18.11
2023-08-21T03:30:50.184Z,17.31
2023-08-21T03:33:22.565Z,16.76
2023-08-21T03:35:59.142Z,16.03
2023-08-21T03:38:31.457Z,15.85
2023-08-21T03:41:03.888Z,15.66
2023-08-21T03:43:38.793Z,16.74
2023-08-21T03:46:11.218Z,17.71
2023-08-21T03:48:43.741Z,16.06
2023-08-21T03:51:16.150Z,15.58
2023-08-21T03:53:48.500Z,16.54
2023-08-21T03:56:20.888Z,17.75
2023-08-21T03:58:56.071Z,17.64
2023-08-21T04:01:28.467Z,16.74
2023-08-21T04:04:00.862Z,16.40
2023-08-21T04:06:33.150Z,18.84
2023-08-21T04:09:07.544Z,17.56
2023-08-21T04:11:39.885Z,18.24
2023-08-21T04:14:14.905Z,16.69
2023-08-21T04:16:47.284Z,16.21
2023-08-21T04:19:20.017Z,16.79
2023-08-21T04:21:52.336Z,16.98
2023-08-21T04:24:24.639Z,17.59
2023-08-21T04:26:57.031Z,15.70
2023-08-21T04:29:32.299Z,16.12
2023-08-21T04:32:04.694Z,15.71
2023-08-21T04:34:37.904Z,15.15
2023-08-21T04:37:13.007Z,16.51
2023-08-21T04:39:47.040Z,17.99
2023-08-21T04:42:19.378Z,17.36
2023-08-21T04:44:54.808Z,16.78
2023-08-21T04:47:29.334Z,17.26
2023-08-21T04:50:02.539Z,16.34
2023-08-21T04:52:34.799Z,17.42
2023-08-21T04:55:07.272Z,18.75
2023-08-21T04:57:39.554Z,19.11
2023-08-21T05:00:17.115Z,19.69
2023-08-21T05:02:49.461Z,19.34
2023-08-21T05:05:21.941Z,19.91
2023-08-21T05:07:54.258Z,19.97
2023-08-21T05:10:26.769Z,18.94
2023-08-21T05:13:01.981Z,18.84
2023-08-21T05:15:36.824Z,18.31
2023-08-21T05:18:09.697Z,20.20
2023-08-21T05:20:44.296Z,18.74
2023-08-21T05:23:16.661Z,20.07
2023-08-21T05:25:50.054Z,18.46
2023-08-21T05:28:22.438Z,16.81
2023-08-21T05:30:57.354Z,17.08
2023-08-21T05:33:29.758Z,17.06
2023-08-21T05:36:02.720Z,18.35
2023-08-21T05:38:35.019Z,18.71
2023-08-21T05:41:07.572Z,19.86
2023-08-21T05:43:40.818Z,19.46
2023-08-21T05:46:15.783Z,18.99
2023-08-21T05:48:48.691Z,18.19
2023-08-21T05:51:21.161Z,21.21
2023-08-21T05:53:53.554Z,20.17
2023-08-21T05:56:26.954Z,20.51
2023-08-21T05:59:00.666Z,21.00
2023-08-21T06:01:35.592Z,21.61
2023-08-21T06:04:08.444Z,22.14
2023-08-21T06:06:41.043Z,22.86
2023-08-21T06:09:13.773Z,24.85
2023-08-21T06:11:46.040Z,23.85
2023-08-21T06:14:18.424Z,23.86
2023-08-21T06:16:53.274Z,22.94
2023-08-21T06:19:25.679Z,24.86
2023-08-21T06:21:58.219Z,24.99
2023-08-21T06:24:31.295Z,24.64
2023-08-21T06:27:05.998Z,25.40
2023-08-21T06:29:41.730Z,25.50
2023-08-21T06:32:17.713Z,24.96
2023-08-21T06:34:51.515Z,26.06
2023-08-21T06:37:23.817Z,24.44
2023-08-21T06:39:56.341Z,24.25
2023-08-21T06:42:29.052Z,24.67
2023-08-21T06:45:01.325Z,21.90
2023-08-21T06:47:36.387Z,22.90
2023-08-21T06:50:09.413Z,21.68
2023-08-21T06:52:41.824Z,22.37
2023-08-21T06:55:14.358Z,20.24
2023-08-21T06:57:46.659Z,24.91
2023-08-21T07:00:19.783Z,21.11
2023-08-21T07:02:55.164Z,23.03
2023-08-21T07:05:27.638Z,22.74
2023-08-21T07:07:59.958Z,18.22
2023-08-21T07:10:33.035Z,19.09
2023-08-21T07:13:05.437Z,20.01
2023-08-21T07:15:37.833Z,20.55
2023-08-21T07:18:13.087Z,17.51
2023-08-21T07:20:45.719Z,18.83
2023-08-21T07:23:18.617Z,19.36
2023-08-21T07:25:50.995Z,17.98
2023-08-21T07:28:23.464Z,16.09
2023-08-21T07:31:00.692Z,16.62
2023-08-21T07:33:35.597Z,17.15
2023-08-21T07:36:10.552Z,14.76
2023-08-21T07:38:43.097Z,16.21
2023-08-21T07:41:17.087Z,15.60
2023-08-21T07:43:50.138Z,16.94
2023-08-21T07:46:22.484Z,18.31
2023-08-21T07:48:58.400Z,16.98
2023-08-21T07:51:30.722Z,16.53
2023-08-21T07:54:03.037Z,17.51
2023-08-21T07:56:36.881Z,20.63
2023-08-21T07:59:09.385Z,21.15
2023-08-21T08:01:41.677Z,15.50
2023-08-21T08:04:16.801Z,17.06
2023-08-21T08:06:49.136Z,17.34
2023-08-21T08:09:22.313Z,16.87
2023-08-21T08:11:54.583Z,18.59
2023-08-21T08:14:26.974Z,19.66
2023-08-21T08:16:59.276Z,19.80
2023-08-21T08:19:36.454Z,15.50
2023-08-21T08:22:08.949Z,12.22
2023-08-21T08:24:51.932Z,12.03
2023-08-21T08:27:24.212Z,12.43
2023-08-21T08:29:56.947Z,11.95
2023-08-21T08:32:29.945Z,12.67
2023-08-21T08:35:05.017Z,11.63
2023-08-21T08:37:37.351Z,10.54
2023-08-21T08:40:11.727Z,10.66
2023-08-21T08:42:44.655Z,11.92
2023-08-21T08:45:19.388Z,11.26
2023-08-21T08:47:52.652Z,10.22
2023-08-21T08:50:32.823Z,11.55
2023-08-21T08:53:16.113Z,12.23
2023-08-21T08:55:50.743Z,11.59
2023-08-21T08:58:23.123Z,10.96
2023-08-21T09:00:56.078Z,10.19
2023-08-21T09:03:28.882Z,10.26
2023-08-21T09:06:04.093Z,10.52
2023-08-21T09:08:36.616Z,11.91
2023-08-21T09:11:08.960Z,11.66
2023-08-21T09:13:42.704Z,12.14
2023-08-21T09:16:15.616Z,12.20
2023-08-21T09:18:53.197Z,13.98
2023-08-21T09:21:30.145Z,13.36
2023-08-21T09:24:04.684Z,12.49
2023-08-21T09:26:37.617Z,12.14
2023-08-21T09:29:10.435Z,11.91
2023-08-21T09:31:45.027Z,11.26
2023-08-21T09:34:17.557Z,11.87
2023-08-21T09:36:59.967Z,10.81
2023-08-21T09:39:39.013Z,10.56
2023-08-21T09:42:34.512Z,10.59
2023-08-21T09:45:07.145Z,11.61
2023-08-21T09:47:40.739Z,11.88
2023-08-21T09:50:14.419Z,9.97
2023-08-21T09:52:51.007Z,10.71
2023-08-21T09:55:23.962Z,11.34
2023-08-21T09:57:59.873Z,10.14
2023-08-21T10:00:38.608Z,11.80
2023-08-21T10:03:13.402Z,10.90
2023-08-21T10:05:47.119Z,10.56
2023-08-21T10:08:29.789Z,12.12
2023-08-21T10:11:04.711Z,12.28
2023-08-21T10:13:39.751Z,14.91
2023-08-21T10:16:13.490Z,13.96
2023-08-21T10:18:50.632Z,15.19
2023-08-21T10:21:28.751Z,14.10
2023-08-21T10:24:06.003Z,11.94
2023-08-21T10:26:47.721Z,9.99
2023-08-21T10:29:20.432Z,9.26
2023-08-21T10:32:05.027Z,10.43
2023-08-21T10:34:39.710Z,10.04
2023-08-21T10:37:14.240Z,10.49
2023-08-21T10:40:04.001Z,12.06
2023-08-21T10:42:46.186Z,11.03
2023-08-21T10:45:18.941Z,11.16
2023-08-21T10:47:51.951Z,9.65
2023-08-21T10:50:24.556Z,9.71
2023-08-21T10:52:58.882Z,12.06
2023-08-21T10:55:34.919Z,13.30
2023-08-21T10:58:12.672Z,11.35
2023-08-21T11:00:46.146Z,9.46
2023-08-21T11:03:20.751Z,8.26
2023-08-21T11:06:06.693Z,9.19
2023-08-21T11:08:39.918Z,8.58
2023-08-21T11:11:16.387Z,8.70
2023-08-21T11:13:58.281Z,8.71
2023-08-21T11:16:30.795Z,8.31
2023-08-21T11:19:08.510Z,7.89
2023-08-21T11:21:40.806Z,9.17
2023-08-21T11:24:13.765Z,10.18
2023-08-21T11:26:48.917Z,8.42
2023-08-21T11:29:22.440Z,6.84
2023-08-21T11:31:54.944Z,6.71
2023-08-21T11:34:27.401Z,6.86
2023-08-21T11:37:00.186Z,7.34
2023-08-21T11:39:43.228Z,7.16
2023-08-21T11:42:19.335Z,6.86
2023-08-21T11:44:54.684Z,7.19
2023-08-21T11:47:28.397Z,7.31
2023-08-21T11:50:01.164Z,6.39
2023-08-21T11:52:39.592Z,7.16
2023-08-21T11:55:14.828Z,6.54
2023-08-21T11:57:57.436Z,9.42
2023-08-21T12:00:35.431Z,8.89
2023-08-21T12:03:09.917Z,7.26
2023-08-21T12:05:48.769Z,8.62
2023-08-21T12:08:21.018Z,7.17
2023-08-21T12:10:56.356Z,7.83
2023-08-21T12:13:32.657Z,7.79
2023-08-21T12:16:06.541Z,9.95
2023-08-21T12:18:39.073Z,9.36
2023-08-21T12:21:11.792Z,8.81
2023-08-21T12:23:44.115Z,9.01
2023-08-21T12:26:21.782Z,9.44
2023-08-21T12:28:56.917Z,8.38
2023-08-21T12:31:29.271Z,7.76
2023-08-21T12:34:01.630Z,7.93
2023-08-21T12:36:34.019Z,9.05
2023-08-21T12:39:06.772Z,11.34
2023-08-21T12:41:39.119Z,12.43
2023-08-21T12:44:14.087Z,12.65
2023-08-21T12:46:46.549Z,10.35
2023-08-21T12:49:19.237Z,11.00
2023-08-21T12:51:51.667Z,11.43
2023-08-21T12:54:24.097Z,10.96
2023-08-21T12:56:57.886Z,10.25
2023-08-21T12:59:33.122Z,11.34
2023-08-21T13:02:05.674Z,10.57
2023-08-21T13:04:39.210Z,11.49
2023-08-21T13:07:11.603Z,10.11
2023-08-21T13:09:44.351Z,13.98
2023-08-21T13:12:17.844Z,15.77
2023-08-21T13:14:52.827Z,16.64
2023-08-21T13:17:25.324Z,15.08
2023-08-21T13:19:57.918Z,15.97
2023-08-21T13:22:30.203Z,17.17
2023-08-21T13:25:02.474Z,15.15
2023-08-21T13:27:35.011Z,17.19
2023-08-21T13:30:11.942Z,14.01
2023-08-21T13:32:44.410Z,13.34
2023-08-21T13:35:18.149Z,11.01
2023-08-21T13:37:50.820Z,9.76
2023-08-21T13:40:24.395Z,8.89
2023-08-21T13:43:02.675Z,8.55
2023-08-21T13:45:38.056Z,9.52
2023-08-21T13:48:11.009Z,9.42
2023-08-21T13:50:43.780Z,9.76
2023-08-21T13:53:16.107Z,8.19
2023-08-21T13:55:48.425Z,7.64
2023-08-21T13:58:20.868Z,8.35
2023-08-21T14:00:57.126Z,8.56
2023-08-21T14:03:29.536Z,7.48
2023-08-21T14:06:01.822Z,8.94
2023-08-21T14:08:34.103Z,8.24
2023-08-21T14:11:06.546Z,8.55
2023-08-21T14:13:38.853Z,7.76
2023-08-21T14:16:14.278Z,8.45
2023-08-21T14:18:46.873Z,8.57
2023-08-21T14:21:19.179Z,9.11
2023-08-21T14:23:51.406Z,9.55
2023-08-21T14:26:23.663Z,8.11
2023-08-21T14:28:56.177Z,7.49
2023-08-21T14:31:31.219Z,7.86
2023-08-21T14:34:03.933Z,7.81
2023-08-21T14:36:36.524Z,7.59
2023-08-21T14:39:09.064Z,6.82
2023-08-21T14:41:41.662Z,8.67
2023-08-21T14:44:16.257Z,8.03
2023-08-21T14:46:51.554Z,8.16
2023-08-21T14:49:24.457Z,7.96
2023-08-21T14:51:56.876Z,7.01
2023-08-21T14:54:29.474Z,7.36
2023-08-21T14:57:01.771Z,7.32
2023-08-21T14:59:34.552Z,7.11
2023-08-21T15:02:09.575Z,7.89
2023-08-21T15:04:42.063Z,7.51
2023-08-21T15:07:14.559Z,8.14
2023-08-21T15:09:47.074Z,8.76
2023-08-21T15:12:20.200Z,7.49
2023-08-21T15:14:52.731Z,8.81
2023-08-21T15:17:28.992Z,7.65
2023-08-21T15:20:01.730Z,6.66
2023-08-21T15:22:34.045Z,7.19
2023-08-21T15:25:06.438Z,7.86
2023-08-21T15:27:39.095Z,7.19
2023-08-21T15:30:15.471Z,8.17
2023-08-21T15:32:50.863Z,7.71
2023-08-21T15:35:23.510Z,7.94
2023-08-21T15:37:56.177Z,7.47
2023-08-21T15:40:28.900Z,6.94
2023-08-21T15:43:03.964Z,6.98
2023-08-21T15:45:36.288Z,7.88
2023-08-21T15:48:11.611Z,7.60
2023-08-21T15:50:44.464Z,7.40
2023-08-21T15:53:17.676Z,8.11
2023-08-21T15:55:49.902Z,7.38
2023-08-21T15:58:22.318Z,8.21
2023-08-21T16:00:54.782Z,8.01
2023-08-21T16:03:29.869Z,8.66
2023-08-21T16:06:02.172Z,8.16
2023-08-21T16:08:34.640Z,7.72
2023-08-21T16:11:07.068Z,7.79
2023-08-21T16:13:39.338Z,8.34
2023-08-21T16:16:11.728Z,8.00
2023-08-21T16:18:47.917Z,7.35
2023-08-21T16:21:20.240Z,7.86
2023-08-21T16:23:52.529Z,7.19
2023-08-21T16:26:24.830Z,8.24
2023-08-21T16:28:57.566Z,8.00
2023-08-21T16:31:30.075Z,8.14
2023-08-21T16:34:05.079Z,8.36
2023-08-21T16:36:37.526Z,8.68
2023-08-21T16:39:10.367Z,7.83
2023-08-21T16:41:42.741Z,7.64
2023-08-21T16:44:15.051Z,7.35
2023-08-21T16:46:47.314Z,8.44
2023-08-21T16:49:25.697Z,7.96
2023-08-21T16:51:57.980Z,8.32
2023-08-21T16:54:30.382Z,8.27
2023-08-21T16:57:03.012Z,8.60
2023-08-21T16:59:35.465Z,8.80
2023-08-21T17:02:08.939Z,8.11
2023-08-21T17:04:43.877Z,7.51
2023-08-21T17:07:16.100Z,8.74
2023-08-21T17:09:50.711Z,10.08
2023-08-21T17:12:23.811Z,8.26
2023-08-21T17:14:56.188Z,8.73
2023-08-21T17:17:28.613Z,9.39
2023-08-21T17:20:04.133Z,10.31
2023-08-21T17:22:36.494Z,10.54
2023-08-21T17:25:15.040Z,10.46
2023-08-21T17:27:48.098Z,9.70
2023-08-21T17:30:20.998Z,9.94
2023-08-21T17:32:54.407Z,10.69
2023-08-21T17:35:30.550Z,10.34
2023-08-21T17:38:03.021Z,11.47
2023-08-21T17:40:35.788Z,11.35
2023-08-21T17:43:09.032Z,11.51
2023-08-21T17:45:41.980Z,11.13
2023-08-21T17:48:14.529Z,11.39
2023-08-21T17:50:51.662Z,11.44
2023-08-21T17:53:24.298Z,10.32
2023-08-21T17:55:57.107Z,11.26
2023-08-21T17:58:33.098Z,11.50
2023-08-21T18:01:05.597Z,10.94
2023-08-21T18:03:37.886Z,11.36
2023-08-21T18:06:13.731Z,10.46
2023-08-21T18:08:46.457Z,12.27
2023-08-21T18:11:18.948Z,10.16
2023-08-21T18:13:51.966Z,11.35
2023-08-21T18:16:25.821Z,11.51
2023-08-21T18:18:58.548Z,11.43
2023-08-21T18:21:34.709Z,10.53
2023-08-21T18:24:07.149Z,11.83
2023-08-21T18:26:42.615Z,12.40
2023-08-21T18:29:14.962Z,10.60
2023-08-21T18:31:47.299Z,12.61
2023-08-21T18:34:19.576Z,13.43
2023-08-21T18:36:54.468Z,13.64
2023-08-21T18:39:27.016Z,12.59
2023-08-21T18:41:59.427Z,12.59
2023-08-21T18:44:31.832Z,13.36
2023-08-21T18:47:04.628Z,12.74
2023-08-21T18:49:37.397Z,14.86
2023-08-21T18:52:12.447Z,14.28
2023-08-21T18:54:44.712Z,14.09
2023-08-21T18:57:16.919Z,14.51
2023-08-21T18:59:50.644Z,13.89
2023-08-21T19:02:23.973Z,14.20
2023-08-21T19:04:56.273Z,14.69
2023-08-21T19:07:31.340Z,14.22
2023-08-21T19:10:06.105Z,15.28
2023-08-21T19:12:38.443Z,16.66
2023-08-21T19:15:12.371Z,18.04
2023-08-21T19:17:44.772Z,17.77
2023-08-21T19:20:17.762Z,17.51
2023-08-21T19:22:54.066Z,17.24
2023-08-21T19:25:26.720Z,16.04
2023-08-21T19:27:59.182Z,16.94
2023-08-21T19:30:31.585Z,16.79
2023-08-21T19:33:03.951Z,17.03
2023-08-21T19:35:37.979Z,15.01
2023-08-21T19:38:14.754Z,16.41
2023-08-21T19:40:48.611Z,15.53
2023-08-21T19:43:21.119Z,14.81
2023-08-21T19:45:59.280Z,15.22
2023-08-21T19:48:31.689Z,16.15
2023-08-21T19:51:04.162Z,15.43
2023-08-21T19:53:39.070Z,17.28
2023-08-21T19:56:11.390Z,16.37
2023-08-21T19:58:44.929Z,15.68
2023-08-21T20:01:17.375Z,17.18
2023-08-21T20:03:50.188Z,17.20
2023-08-21T20:06:22.621Z,16.28
2023-08-21T20:08:57.797Z,18.34
2023-08-21T20:11:30.452Z,16.64
2023-08-21T20:14:02.893Z,17.79
2023-08-21T20:16:35.293Z,18.66
2023-08-21T20:19:10.140Z,19.57
2023-08-21T20:21:42.593Z,17.66
2023-08-21T20:24:18.762Z,19.36
2023-08-21T20:26:51.050Z,17.64
2023-08-21T20:29:24.197Z,18.77
2023-08-21T20:31:56.466Z,18.06
2023-08-21T20:34:28.833Z,17.82
2023-08-21T20:37:01.281Z,17.66
2023-08-21T20:39:36.784Z,16.71
2023-08-21T20:42:10.191Z,18.03
2023-08-21T20:44:42.652Z,18.68
2023-08-21T20:47:15.531Z,19.34
2023-08-21T20:49:48.240Z,19.91
2023-08-21T20:52:20.538Z,19.63
2023-08-21T20:54:55.475Z,20.21
2023-08-21T20:57:27.791Z,20.05
2023-08-21T21:00:00.368Z,19.94
2023-08-21T21:02:32.765Z,19.87
2023-08-21T21:05:05.432Z,21.07
2023-08-21T21:07:39.567Z,20.72
2023-08-21T21:10:16.065Z,20.79
2023-08-21T21:12:48.420Z,21.51
2023-08-21T21:15:20.785Z,20.06
2023-08-21T21:17:53.350Z,21.80
2023-08-21T21:20:25.794Z,23.26
2023-08-21T21:22:58.207Z,22.51
2023-08-21T21:25:33.198Z,23.67
2023-08-21T21:28:05.694Z,23.42
2023-08-21T21:30:38.280Z,22.64
2023-08-21T21:33:10.585Z,22.91
2023-08-21T21:35:43.882Z,22.54
2023-08-21T21:38:16.148Z,22.00
2023-08-21T21:40:51.217Z,21.55
2023-08-21T21:43:24.840Z,20.65
2023-08-21T21:46:01.323Z,21.91
2023-08-21T21:48:33.870Z,22.62
2023-08-21T21:51:09.098Z,23.39
2023-08-21T21:53:41.361Z,20.98
2023-08-21T21:56:16.511Z,22.80
2023-08-21T21:58:50.390Z,21.71
2023-08-21T22:01:22.771Z,20.92
2023-08-21T22:03:55.394Z,22.85
2023-08-21T22:06:27.751Z,23.59
2023-08-21T22:09:00.203Z,23.63
2023-08-21T22:11:35.057Z,23.54
2023-08-21T22:14:07.353Z,22.26
2023-08-21T22:16:39.675Z,21.66
2023-08-21T22:19:12.503Z,22.15
2023-08-21T22:21:46.660Z,22.14
2023-08-21T22:24:19.029Z,21.04
2023-08-21T22:26:53.973Z,21.31
2023-08-21T22:29:26.569Z,22.38
2023-08-21T22:31:58.865Z,21.19
2023-08-21T22:34:31.257Z,20.89
2023-08-21T22:37:03.606Z,22.10
2023-08-21T22:39:36.153Z,23.06
2023-08-21T22:42:11.576Z,23.99
2023-08-21T22:44:43.932Z,25.03
2023-08-21T22:47:16.330Z,24.34
2023-08-21T22:49:48.856Z,24.86
2023-08-21T22:52:21.173Z,25.02
2023-08-21T22:54:53.705Z,24.83
2023-08-21T22:57:28.945Z,22.53
2023-08-21T23:00:01.404Z,23.66
2023-08-21T23:02:33.708Z,23.25
2023-08-21T23:05:06.866Z,25.46
2023-08-21T23:07:39.728Z,24.43
2023-08-21T23:10:13.315Z,25.54
2023-08-21T23:12:48.214Z,26.15
2023-08-21T23:15:20.687Z,26.35
2023-08-21T23:17:53.253Z,24.49
2023-08-21T23:20:26.416Z,24.11
2023-08-21T23:22:58.660Z,25.67
2023-08-21T23:25:30.980Z,23.54
2023-08-21T23:28:05.918Z,24.24
2023-08-21T23:30:41.902Z,24.49
2023-08-21T23:33:14.216Z,24.46
2023-08-21T23:35:46.643Z,23.33
2023-08-21T23:38:19.105Z,24.28
2023-08-21T23:40:51.820Z,23.73
2023-08-21T23:43:27.558Z,22.60
2023-08-21T23:45:59.991Z,24.22
2023-08-21T23:48:32.808Z,24.88
2023-08-21T23:51:05.616Z,25.16
2023-08-21T23:53:38.006Z,23.81
2023-08-21T23:56:11.547Z,23.77
2023-08-21T23:58:47.038Z,23.74
